createdAt,value
2019-04-20T00:01:01.691Z,5.96
2019-04-20T00:03:40.108Z,5.96
2019-04-20T00:06:09.172Z,5.89
2019-04-20T00:08:42.746Z,5.83
2019-04-20T00:11:24.854Z,5.77
2019-04-20T00:13:59.336Z,5.75
2019-04-20T00:16:21.277Z,5.68
2019-04-20T00:18:56.590Z,5.66
2019-04-20T00:21:43.121Z,5.61
2019-04-20T00:24:22.841Z,5.47
2019-04-20T00:29:39.367Z,5.45
2019-04-20T00:32:06.331Z,5.46
2019-04-20T00:34:35.064Z,5.39
2019-04-20T00:37:05.216Z,5.37
2019-04-20T00:39:36.225Z,5.30
2019-04-20T00:42:13.322Z,5.12
2019-04-20T00:44:45.840Z,5.04
2019-04-20T00:47:32.292Z,5.01
2019-04-20T00:50:08.142Z,4.96
2019-04-20T00:52:32.824Z,4.88
2019-04-20T00:54:58.085Z,4.84
2019-04-20T00:57:38.040Z,4.83
2019-04-20T01:00:21.598Z,4.79
2019-04-20T01:02:53.279Z,4.79
2019-04-20T01:05:29.902Z,4.85
2019-04-20T01:07:56.983Z,4.85
2019-04-20T01:10:37.085Z,4.87
2019-04-20T01:13:08.013Z,4.96
2019-04-20T01:15:46.254Z,5.03
2019-04-20T01:18:10.774Z,4.99
2019-04-20T01:20:43.084Z,4.87
2019-04-20T01:23:20.762Z,4.84
2019-04-20T01:25:56.839Z,4.79
2019-04-20T01:28:37.570Z,4.77
2019-04-20T01:31:06.744Z,4.80
2019-04-20T01:33:42.457Z,4.79
2019-04-20T01:36:20.223Z,4.88
2019-04-20T01:38:52.242Z,4.88
2019-04-20T01:41:09.671Z,4.82
2019-04-20T01:43:43.630Z,4.90
2019-04-20T01:46:19.898Z,4.90
2019-04-20T01:48:48.686Z,4.95
2019-04-20T01:51:26.400Z,5.00
2019-04-20T01:54:13.506Z,5.03
2019-04-20T01:56:43.439Z,5.00
2019-04-20T01:59:20.153Z,5.00
2019-04-20T02:01:55.643Z,4.99
2019-04-20T02:04:40.952Z,4.96
2019-04-20T02:07:12.008Z,4.92
2019-04-20T02:09:51.374Z,4.90
2019-04-20T02:12:22.336Z,4.90
2019-04-20T02:14:57.179Z,4.92
2019-04-20T02:17:31.912Z,4.89
2019-04-20T02:20:19.840Z,4.91
2019-04-20T02:22:46.566Z,4.88
2019-04-20T02:25:09.946Z,4.81
2019-04-20T02:27:48.747Z,4.73
2019-04-20T02:30:47.550Z,4.60
2019-04-20T02:36:04.118Z,4.31
2019-04-20T02:39:05.739Z,4.25
2019-04-20T02:41:17.765Z,4.13
2019-04-20T02:44:04.412Z,4.14
2019-04-20T02:46:22.497Z,4.17
2019-04-20T02:49:01.310Z,4.13
2019-04-20T02:54:13.097Z,3.90
2019-04-20T02:56:41.340Z,3.78
2019-04-20T02:59:42.312Z,3.69
2019-04-20T03:01:30.950Z,3.62
2019-04-20T03:03:51.145Z,3.54
2019-04-20T03:06:30.463Z,3.50
2019-04-20T03:09:22.530Z,3.54
2019-04-20T03:11:59.774Z,3.58
2019-04-20T03:14:19.091Z,3.60
2019-04-20T03:16:56.476Z,3.64
2019-04-20T03:19:25.696Z,3.65
2019-04-20T03:22:09.731Z,3.62
2019-04-20T03:24:45.450Z,3.56
2019-04-20T03:27:07.987Z,3.39
2019-04-20T03:29:56.236Z,3.38
2019-04-20T03:35:12.231Z,3.30
2019-04-20T03:37:44.110Z,3.36
2019-04-20T03:40:04.317Z,3.43
2019-04-20T03:42:24.957Z,3.46
2019-04-20T03:45:03.403Z,3.48
2019-04-20T03:47:38.389Z,3.55
2019-04-20T03:50:31.021Z,3.61
2019-04-20T03:53:02.782Z,3.64
2019-04-20T03:55:37.053Z,3.66
2019-04-20T03:58:15.334Z,3.62
2019-04-20T04:00:50.477Z,3.49
2019-04-20T04:04:05.378Z,3.46
2019-04-20T04:06:12.890Z,3.42
2019-04-20T04:08:39.523Z,3.53
2019-04-20T04:11:26.078Z,3.68
2019-04-20T04:13:41.923Z,3.79
2019-04-20T04:16:17.315Z,3.95
2019-04-20T04:18:59.174Z,4.09
2019-04-20T04:21:41.166Z,4.18
2019-04-20T04:24:09.460Z,4.27
2019-04-20T04:26:45.614Z,4.31
2019-04-20T04:29:27.220Z,4.36
2019-04-20T04:32:03.666Z,4.54
2019-04-20T04:34:31.039Z,4.68
2019-04-20T04:37:03.465Z,4.81
2019-04-20T04:39:35.400Z,4.97
2019-04-20T04:42:16.931Z,5.16
2019-04-20T04:44:34.337Z,5.41
2019-04-20T04:47:01.085Z,5.63
2019-04-20T04:49:35.075Z,5.81
2019-04-20T04:52:10.246Z,6.09
2019-04-20T04:54:46.213Z,6.32
2019-04-20T04:57:09.547Z,9.04
2019-04-20T04:59:42.567Z,12.52
2019-04-20T05:02:14.255Z,14.07
2019-04-20T05:05:15.374Z,15.59
2019-04-20T05:07:46.654Z,16.65
2019-04-20T05:10:05.579Z,17.32
2019-04-20T05:12:38.845Z,17.94
2019-04-20T05:15:21.226Z,19.12
2019-04-20T05:18:06.801Z,19.67
2019-04-20T05:20:47.234Z,19.22
2019-04-20T05:23:30.643Z,20.02
2019-04-20T05:26:14.232Z,20.90
2019-04-20T05:28:42.123Z,22.18
2019-04-20T05:31:05.000Z,21.98
2019-04-20T05:34:02.360Z,21.71
2019-04-20T05:36:29.594Z,21.93
2019-04-20T05:39:17.697Z,22.15
2019-04-20T05:41:38.420Z,22.66
2019-04-20T05:44:09.915Z,22.75
2019-04-20T05:46:50.449Z,23.13
2019-04-20T05:49:23.063Z,23.55
2019-04-20T05:51:54.412Z,23.57
2019-04-20T05:54:36.360Z,23.62
2019-04-20T05:57:10.311Z,23.83
2019-04-20T05:59:45.330Z,23.68
2019-04-20T06:02:11.326Z,22.72
2019-04-20T06:04:58.389Z,21.99
2019-04-20T06:07:22.796Z,20.88
2019-04-20T06:09:54.530Z,21.71
2019-04-20T06:12:30.001Z,22.87
2019-04-20T06:14:53.792Z,23.25
2019-04-20T06:17:40.051Z,22.75
2019-04-20T06:20:16.902Z,23.15
2019-04-20T06:22:48.349Z,22.94
2019-04-20T06:25:39.103Z,22.60
2019-04-20T06:27:59.615Z,23.79
2019-04-20T06:30:27.341Z,23.94
2019-04-20T06:34:19.342Z,24.38
2019-04-20T06:36:43.117Z,24.63
2019-04-20T06:39:17.456Z,24.28
2019-04-20T06:42:05.813Z,24.17
2019-04-20T06:44:22.839Z,24.24
2019-04-20T06:46:58.754Z,23.99
2019-04-20T06:49:29.157Z,22.59
2019-04-20T06:51:59.400Z,22.35
2019-04-20T06:54:39.439Z,22.52
2019-04-20T06:57:18.397Z,22.21
2019-04-20T06:59:46.002Z,22.02
2019-04-20T07:02:24.582Z,21.44
2019-04-20T07:04:57.863Z,21.53
2019-04-20T07:07:32.107Z,21.45
2019-04-20T07:12:43.658Z,21.18
2019-04-20T07:15:17.479Z,21.45
2019-04-20T07:20:39.706Z,21.37
2019-04-20T07:23:21.338Z,21.39
2019-04-20T07:25:42.310Z,21.60
2019-04-20T07:28:23.858Z,21.27
2019-04-20T07:30:53.942Z,21.52
2019-04-20T07:33:27.010Z,21.86
2019-04-20T07:35:56.016Z,21.34
2019-04-20T07:41:17.555Z,21.72
2019-04-20T07:43:57.439Z,21.60
2019-04-20T07:46:34.813Z,21.62
2019-04-20T07:48:56.432Z,21.16
2019-04-20T07:51:14.515Z,21.46
2019-04-20T07:53:59.496Z,21.79
2019-04-20T07:56:37.065Z,21.26
2019-04-20T07:58:55.281Z,21.40
2019-04-20T08:02:01.198Z,21.38
2019-04-20T08:04:36.798Z,21.42
2019-04-20T08:06:58.472Z,21.56
2019-04-20T08:09:35.021Z,20.51
2019-04-20T08:12:29.362Z,21.27
2019-04-20T08:15:05.077Z,21.41
2019-04-20T08:17:46.751Z,22.07
2019-04-20T08:20:10.790Z,21.51
2019-04-20T08:22:53.124Z,21.63
2019-04-20T08:25:23.982Z,21.07
2019-04-20T08:28:01.522Z,21.58
2019-04-20T08:31:05.118Z,22.14
2019-04-20T08:33:54.938Z,20.72
2019-04-20T08:36:30.007Z,20.41
2019-04-20T08:39:16.930Z,19.73
2019-04-20T08:41:24.909Z,19.66
2019-04-20T08:44:23.834Z,19.71
2019-04-20T08:46:54.806Z,19.56
2019-04-20T08:49:22.084Z,20.09
2019-04-20T08:51:56.842Z,20.12
2019-04-20T08:54:21.641Z,20.30
2019-04-20T08:56:41.492Z,19.92
2019-04-20T08:59:09.685Z,19.83
2019-04-20T09:01:42.646Z,19.85
2019-04-20T09:04:22.244Z,20.19
2019-04-20T09:07:02.681Z,20.06
2019-04-20T09:09:49.951Z,19.98
2019-04-20T09:12:16.742Z,19.92
2019-04-20T09:14:30.265Z,20.51
2019-04-20T09:17:30.150Z,20.74
2019-04-20T09:20:04.152Z,21.16
2019-04-20T09:22:40.547Z,21.14
2019-04-20T09:25:43.035Z,21.05
2019-04-20T09:27:48.791Z,20.57
2019-04-20T09:30:27.867Z,20.42
2019-04-20T09:33:20.741Z,21.16
2019-04-20T09:35:43.141Z,20.92
2019-04-20T09:38:14.463Z,21.07
2019-04-20T09:40:51.401Z,20.97
2019-04-20T09:43:10.973Z,20.41
2019-04-20T09:45:53.705Z,20.78
2019-04-20T09:48:32.035Z,20.11
2019-04-20T09:51:19.199Z,20.45
2019-04-20T09:53:45.471Z,20.38
2019-04-20T09:56:19.342Z,20.55
2019-04-20T09:59:09.827Z,20.43
2019-04-20T10:01:31.252Z,20.95
2019-04-20T10:03:54.765Z,20.64
2019-04-20T10:06:30.709Z,20.09
2019-04-20T10:09:03.847Z,20.50
2019-04-20T10:11:37.381Z,20.13
2019-04-20T10:14:10.400Z,20.39
2019-04-20T10:16:44.030Z,20.37
2019-04-20T10:19:20.660Z,20.16
2019-04-20T10:21:50.643Z,20.15
2019-04-20T10:24:26.351Z,19.95
2019-04-20T10:26:58.754Z,20.20
2019-04-20T10:29:33.595Z,19.94
2019-04-20T10:32:10.157Z,20.04
2019-04-20T10:34:39.287Z,20.43
2019-04-20T10:37:13.480Z,20.72
2019-04-20T10:39:46.799Z,20.40
2019-04-20T10:42:18.665Z,20.58
2019-04-20T10:44:55.159Z,20.90
2019-04-20T10:47:25.430Z,20.96
2019-04-20T10:50:00.861Z,20.70
2019-04-20T10:52:33.968Z,20.92
2019-04-20T10:55:08.369Z,20.99
2019-04-20T10:57:41.646Z,21.18
2019-04-20T11:00:15.588Z,20.59
2019-04-20T11:02:49.646Z,20.65
2019-04-20T11:05:22.880Z,20.98
2019-04-20T11:07:55.118Z,21.51
2019-04-20T11:10:46.138Z,21.99
2019-04-20T11:13:05.378Z,21.48
2019-04-20T11:15:38.735Z,21.54
2019-04-20T11:18:11.330Z,21.56
2019-04-20T11:20:45.653Z,21.63
2019-04-20T11:23:20.334Z,21.54
2019-04-20T11:25:58.049Z,21.79
2019-04-20T11:28:30.290Z,21.24
2019-04-20T11:31:02.064Z,20.98
2019-04-20T11:33:34.245Z,21.18
2019-04-20T11:36:07.428Z,21.12
2019-04-20T11:38:40.662Z,21.39
2019-04-20T11:41:18.927Z,21.92
2019-04-20T11:43:47.175Z,22.11
2019-04-20T11:46:20.720Z,22.27
2019-04-20T11:48:55.208Z,21.91
2019-04-20T11:51:31.755Z,22.05
2019-04-20T11:54:06.092Z,21.75
2019-04-20T11:56:43.938Z,21.70
2019-04-20T11:59:16.683Z,22.12
2019-04-20T12:02:14.340Z,21.53
2019-04-20T12:05:10.249Z,21.63
2019-04-20T12:07:27.129Z,21.62
2019-04-20T12:10:09.034Z,21.23
2019-04-20T12:12:42.104Z,21.06
2019-04-20T12:15:10.694Z,21.33
2019-04-20T12:17:43.876Z,21.47
2019-04-20T12:20:16.760Z,20.93
2019-04-20T12:22:50.445Z,21.16
2019-04-20T12:25:23.707Z,21.22
2019-04-20T12:27:59.923Z,21.17
2019-04-20T12:30:30.530Z,21.12
2019-04-20T12:33:03.852Z,20.83
2019-04-20T12:35:38.261Z,21.36
2019-04-20T12:38:10.503Z,21.28
2019-04-20T12:40:42.443Z,21.52
2019-04-20T12:43:15.138Z,21.39
2019-04-20T12:45:47.684Z,21.34
2019-04-20T12:48:21.706Z,21.53
2019-04-20T12:50:53.479Z,21.54
2019-04-20T12:53:26.419Z,21.38
2019-04-20T12:55:58.821Z,21.29
2019-04-20T12:58:30.681Z,21.07
2019-04-20T13:01:02.622Z,21.19
2019-04-20T13:03:35.230Z,21.15
2019-04-20T13:06:08.388Z,21.31
2019-04-20T13:08:47.602Z,21.02
2019-04-20T13:11:20.395Z,21.27
2019-04-20T13:14:22.203Z,21.35
2019-04-20T13:16:55.266Z,21.23
2019-04-20T13:19:29.054Z,21.25
2019-04-20T13:22:01.244Z,21.15
2019-04-20T13:24:33.086Z,21.28
2019-04-20T13:27:04.912Z,21.16
2019-04-20T13:29:38.164Z,21.45
2019-04-20T13:32:10.095Z,21.51
2019-04-20T13:34:42.325Z,21.81
2019-04-20T13:37:15.904Z,21.41
2019-04-20T13:39:49.047Z,21.37
2019-04-20T13:42:24.754Z,21.22
2019-04-20T13:44:54.935Z,21.51
2019-04-20T13:47:28.161Z,21.67
2019-04-20T13:50:01.098Z,21.75
2019-04-20T13:52:33.216Z,21.77
2019-04-20T13:55:08.723Z,21.69
2019-04-20T13:57:42.864Z,21.38
2019-04-20T14:00:31.635Z,21.41
2019-04-20T14:03:18.327Z,21.17
2019-04-20T14:05:53.308Z,21.14
2019-04-20T14:08:29.268Z,21.29
2019-04-20T14:11:07.322Z,21.18
2019-04-20T14:13:43.476Z,21.02
2019-04-20T14:16:18.946Z,20.93
2019-04-20T14:18:51.725Z,20.94
2019-04-20T14:21:27.914Z,20.87
2019-04-20T14:24:01.713Z,20.92
2019-04-20T14:26:36.068Z,20.84
2019-04-20T14:29:10.355Z,20.77
2019-04-20T14:31:48.368Z,20.55
2019-04-20T14:34:20.675Z,20.56
2019-04-20T14:36:55.108Z,20.38
2019-04-20T14:39:32.193Z,20.40
2019-04-20T14:42:04.634Z,20.44
2019-04-20T14:44:37.484Z,20.60
2019-04-20T14:47:09.784Z,20.70
2019-04-20T14:49:42.910Z,20.71
2019-04-20T14:52:15.504Z,20.78
2019-04-20T14:54:47.726Z,20.73
2019-04-20T14:57:19.581Z,20.72
2019-04-20T14:59:54.303Z,20.72
2019-04-20T15:02:30.149Z,20.63
2019-04-20T15:05:07.427Z,20.71
2019-04-20T15:07:40.711Z,20.82
2019-04-20T15:10:13.123Z,21.01
2019-04-20T15:12:50.881Z,20.96
2019-04-20T15:15:18.785Z,21.02
2019-04-20T15:17:53.497Z,20.72
2019-04-20T15:20:25.624Z,20.70
2019-04-20T15:22:59.508Z,20.89
2019-04-20T15:25:31.706Z,20.77
2019-04-20T15:28:08.294Z,20.82
2019-04-20T15:30:40.770Z,20.77
2019-04-20T15:33:18.966Z,20.47
2019-04-20T15:35:52.402Z,20.36
2019-04-20T15:38:24.980Z,20.15
2019-04-20T15:40:59.440Z,20.12
2019-04-20T15:43:33.219Z,20.14
2019-04-20T15:46:07.489Z,20.13
2019-04-20T15:48:39.867Z,20.12
2019-04-20T15:51:17.127Z,20.28
2019-04-20T15:53:57.687Z,20.20
2019-04-20T15:56:35.567Z,20.07
2019-04-20T15:59:08.470Z,20.10
2019-04-20T16:01:45.070Z,20.05
2019-04-20T16:04:37.572Z,19.86
2019-04-20T16:07:08.436Z,19.76
2019-04-20T16:09:42.163Z,19.80
2019-04-20T16:12:15.198Z,19.66
2019-04-20T16:14:51.265Z,19.65
2019-04-20T16:17:36.374Z,19.69
2019-04-20T16:20:06.435Z,19.59
2019-04-20T16:22:34.744Z,19.47
2019-04-20T16:25:27.613Z,19.33
2019-04-20T16:27:59.422Z,19.48
2019-04-20T16:30:31.811Z,19.41
2019-04-20T16:33:06.164Z,19.31
2019-04-20T16:35:40.606Z,19.26
2019-04-20T16:38:12.538Z,19.26
2019-04-20T16:40:44.467Z,19.24
2019-04-20T16:43:24.593Z,19.13
2019-04-20T16:45:50.963Z,19.07
2019-04-20T16:48:24.085Z,19.01
2019-04-20T16:50:56.473Z,18.92
2019-04-20T16:53:28.791Z,18.83
2019-04-20T16:56:01.166Z,18.68
2019-04-20T16:58:34.123Z,18.64
2019-04-20T17:01:07.687Z,18.57
2019-04-20T17:03:50.236Z,18.46
2019-04-20T17:06:13.845Z,18.42
2019-04-20T17:08:48.318Z,18.36
2019-04-20T17:11:25.709Z,18.29
2019-04-20T17:13:59.924Z,18.22
2019-04-20T17:16:31.668Z,18.11
2019-04-20T17:19:05.973Z,18.05
2019-04-20T17:21:44.532Z,17.99
2019-04-20T17:24:17.887Z,17.85
2019-04-20T17:27:05.748Z,17.72
2019-04-20T17:29:56.678Z,17.59
2019-04-20T17:32:31.603Z,17.44
2019-04-20T17:35:18.132Z,17.28
2019-04-20T17:37:45.084Z,17.13
2019-04-20T17:40:44.262Z,17.01
2019-04-20T17:43:07.527Z,16.87
2019-04-20T17:45:42.142Z,16.68
2019-04-20T17:48:18.887Z,16.49
2019-04-20T17:51:07.762Z,16.25
2019-04-20T17:53:37.210Z,16.04
2019-04-20T17:56:05.288Z,15.75
2019-04-20T17:58:41.325Z,15.50
2019-04-20T18:01:41.279Z,15.26
2019-04-20T18:04:43.006Z,15.01
2019-04-20T18:06:58.917Z,14.76
2019-04-20T18:09:38.651Z,14.51
2019-04-20T18:11:56.325Z,14.33
2019-04-20T18:14:43.086Z,14.11
2019-04-20T18:17:17.854Z,13.90
2019-04-20T18:19:45.028Z,13.71
2019-04-20T18:22:19.578Z,13.49
2019-04-20T18:25:14.724Z,13.30
2019-04-20T18:27:41.206Z,13.13
2019-04-20T18:30:15.526Z,12.97
2019-04-20T18:32:37.834Z,12.85
2019-04-20T18:35:24.598Z,12.75
2019-04-20T18:38:00.896Z,12.65
2019-04-20T18:40:37.228Z,12.51
2019-04-20T18:43:09.354Z,12.37
2019-04-20T18:45:58.304Z,12.22
2019-04-20T18:48:33.493Z,12.11
2019-04-20T18:50:47.402Z,11.97
2019-04-20T18:53:28.648Z,11.82
2019-04-20T18:55:56.035Z,11.69
2019-04-20T18:58:25.204Z,11.57
2019-04-20T19:01:01.632Z,11.38
2019-04-20T19:03:40.326Z,11.25
2019-04-20T19:06:09.042Z,11.13
2019-04-20T19:08:46.907Z,11.05
2019-04-20T19:11:19.749Z,10.93
2019-04-20T19:13:51.210Z,10.79
2019-04-20T19:16:34.848Z,10.67
2019-04-20T19:19:16.359Z,10.54
2019-04-20T19:21:35.292Z,10.47
2019-04-20T19:24:12.166Z,10.38
2019-04-20T19:26:48.153Z,10.31
2019-04-20T19:29:23.155Z,10.20
2019-04-20T19:32:08.825Z,10.12
2019-04-20T19:34:36.527Z,10.04
2019-04-20T19:37:10.102Z,9.91
2019-04-20T19:39:47.070Z,9.62
2019-04-20T19:42:19.525Z,10.40
2019-04-20T19:44:51.797Z,10.76
2019-04-20T19:47:34.845Z,11.05
2019-04-20T19:50:00.270Z,11.21
2019-04-20T19:52:44.814Z,11.35
2019-04-20T19:55:10.516Z,11.36
2019-04-20T19:57:42.202Z,11.39
2019-04-20T19:59:59.814Z,11.39
2019-04-20T20:02:31.950Z,11.36
2019-04-20T20:05:08.835Z,11.32
2019-04-20T20:07:42.622Z,11.27
2019-04-20T20:10:12.993Z,11.24
2019-04-20T20:12:52.773Z,11.16
2019-04-20T20:15:26.404Z,11.01
2019-04-20T20:18:11.241Z,10.86
2019-04-20T20:20:47.346Z,10.73
2019-04-20T20:23:02.461Z,10.62
2019-04-20T20:25:41.071Z,10.50
2019-04-20T20:28:19.096Z,10.35
2019-04-20T20:30:58.170Z,10.18
2019-04-20T20:33:35.096Z,10.05
2019-04-20T20:35:58.630Z,9.90
2019-04-20T20:38:31.676Z,9.73
2019-04-20T20:41:07.778Z,9.61
2019-04-20T20:43:45.736Z,9.50
2019-04-20T20:46:16.296Z,9.44
2019-04-20T20:49:03.461Z,9.35
2019-04-20T20:51:34.610Z,9.31
2019-04-20T20:53:59.298Z,9.23
2019-04-20T20:56:24.045Z,9.16
2019-04-20T20:59:00.836Z,9.16
2019-04-20T21:01:28.189Z,9.23
2019-04-20T21:03:58.529Z,9.20
2019-04-20T21:06:32.774Z,9.19
2019-04-20T21:09:08.160Z,9.15
2019-04-20T21:11:42.284Z,8.99
2019-04-20T21:14:19.932Z,8.85
2019-04-20T21:16:57.526Z,8.67
2019-04-20T21:19:35.294Z,8.53
2019-04-20T21:22:03.230Z,8.42
2019-04-20T21:24:30.369Z,8.33
2019-04-20T21:27:07.882Z,8.31
2019-04-20T21:29:44.436Z,8.26
2019-04-20T21:32:15.984Z,8.24
2019-04-20T21:34:51.772Z,8.17
2019-04-20T21:37:22.435Z,8.11
2019-04-20T21:39:59.013Z,7.98
2019-04-20T21:42:28.530Z,7.86
2019-04-20T21:45:09.509Z,7.71
2019-04-20T21:47:36.489Z,7.63
2019-04-20T21:50:27.114Z,7.56
2019-04-20T21:52:48.519Z,7.50
2019-04-20T21:55:18.242Z,7.42
2019-04-20T21:57:54.962Z,7.32
2019-04-20T22:00:37.577Z,7.22
2019-04-20T22:03:11.339Z,7.15
2019-04-20T22:05:42.308Z,7.08
2019-04-20T22:08:17.482Z,7.02
2019-04-20T22:10:47.363Z,6.96
2019-04-20T22:13:25.462Z,6.88
2019-04-20T22:15:59.530Z,6.73
2019-04-20T22:18:27.160Z,6.65
2019-04-20T22:21:12.309Z,6.56
2019-04-20T22:23:50.357Z,6.54
2019-04-20T22:26:18.749Z,6.54
2019-04-20T22:28:40.382Z,6.56
2019-04-20T22:31:13.893Z,6.59
2019-04-20T22:33:47.322Z,6.58
2019-04-20T22:36:20.199Z,6.58
2019-04-20T22:39:09.637Z,6.52
2019-04-20T22:41:52.463Z,6.46
2019-04-20T22:44:21.374Z,6.47
2019-04-20T22:46:52.265Z,6.41
2019-04-20T22:49:39.961Z,6.36
2019-04-20T22:52:11.831Z,6.35
2019-04-20T22:54:51.851Z,6.33
2019-04-20T22:57:21.616Z,6.36
2019-04-20T22:59:51.880Z,6.34
2019-04-20T23:02:13.494Z,6.31
2019-04-20T23:04:46.648Z,6.28
2019-04-20T23:07:18.945Z,6.26
2019-04-20T23:09:54.529Z,6.21
2019-04-20T23:12:26.960Z,6.14
2019-04-20T23:14:58.563Z,6.10
2019-04-20T23:17:37.264Z,6.04
2019-04-20T23:20:13.298Z,5.95
2019-04-20T23:22:43.927Z,5.84
2019-04-20T23:25:13.461Z,5.70
2019-04-20T23:27:45.810Z,5.58
2019-04-20T23:30:23.659Z,5.46
2019-04-20T23:32:51.784Z,5.43
2019-04-20T23:35:26.624Z,5.40
2019-04-20T23:38:02.931Z,5.34
2019-04-20T23:40:31.929Z,5.31
2019-04-20T23:43:17.729Z,5.31
2019-04-20T23:45:52.920Z,5.28
2019-04-20T23:48:38.973Z,5.24
2019-04-20T23:51:34.695Z,5.18
2019-04-20T23:53:54.009Z,5.16
2019-04-20T23:56:17.454Z,5.13
2019-04-20T23:58:51.826Z,5.14
